Aeroporto :
LOGIN :

Iscrizione | Disclaimer

   EN    FR    IT 

 










Sommario :    VFR   VFR Marginale   IFR   IFR Intensivo   IFR Molto Intensivo
Visibilità : 
Base nubi : 
>= 8 km
>= 3000ft
5 / 8 km
1000 / 3000 ft
1500m / 5 km
500 / 1000 ft
800 / 1500m
200 / 500 ft
< 800m
< 200 ft
Simboli :   Temporali  Nebbia  Neve Forte  Precipitazioni Forti  Vento > 20 kt
SIGMETs :   Varie  Temporali  Ghiacco  Turbolenza  Onda orograficha  Ceneri Vulcaniche






- Altitudine del aeroporto : 821 ft
- Codice IATA : LYS


LFLL - Lyon St Exupéry / Satolas

ULTIMO METAR :
  • 170700Z 25004KT 0300 R35L/0375N R17R/0300N R35R/0325N R17L/0300N FZFG VV/// M00/M00 Q1007 NOSIG

METARs OBSOLETI :
  • 170630Z VRB02KT 0300 R35L/0450N R17R/0400N R35R/0400N R17L/0500N FZFG NSC M01/M01 Q1007 NOSIG
  • 170600Z 23005KT 0350 R35L/0500N R17R/0400N R35R/0400N R17L/0550N FZFG NSC M01/M01 Q1007 NOSIG
  • 170530Z 22003KT 180V250 0350 R35L/0550N R17R/0350N R35R/0450N R17L/0550U FZFG NSC M01/M01 Q1007 NOSIG
  • 170500Z 05002KT 0400 R35L/0400N R17R/0375N R35R/0350N R17L/0500D FZFG NSC M01/M01 Q1007 NOSIG
  • 170430Z 00000KT 0400 R35L/0450N R17R/0550U R35R/0400N R17L/0600N FZFG NSC M01/M02 Q1007 NOSIG

TAF TAF LFLL
Valido dal 17 a 06 ore il 18 a 12 ore UTC


170500Z 1706/1812 VRB03KT 0500 FZFG SCT001
TEMPO 1706/1709 0300
BECMG 1707/1709 FG
BECMG 1710/1712 3000 BR OVC005
BECMG 1712/1714 7000 NSW BKN010 BKN030 OVC060
PROB30
TEMPO 1718/1806 2000 -SN
BECMG 1809/1812 BKN020



MetMap, La meteo Aeronautica in un colpo d'occhio ! - Copyright ORBIFLY Dicembre 2007 - Disclaimer

ORBIFLY MET'MAP TEAM :

Programmazione e sviluppo : Alexandra Zaïnal
Concezione e sviluppo : Baudouin d'Aumeries
Co-Programmazione e sviluppo : Marc-Olivier Méhu
Supporto tecnico e logistico : Manuel Goepfert
Aiuto per la traduzione : Arnaldo La Scala

Contatto : metmap@orbifly.com




FONTI E CREDITI :

   NOAA